Terminal Aerodrome Forecast
Issued by NWS Goodland, KS

Home | Current Version | Previous Version | Text Only | Print | Product List | Glossary On
Versions: 1 2 3 4 5 6 7 8 9 10 11 12 13 14 15 16 17 18 19 20 21 22 23 24
000
FTUS43 KGLD 292101 AAB
TAFGLD
TAF AMD
KGLD 292101Z 2921/3018 02018G28KT 6SM -SN BLSN OVC050
      TEMPO 2921/2922 1SM -SN OVC015
     FM292200 36028G38KT 1 1/2SM -SN BLSN OVC030
     FM300200 36025G35KT 1/2SM SN BLSN OVC004
     FM301300 34037G47KT 1SM -SN BLSN OVC008=

USA.gov is the U.S. government's official web portal to all federal, state and local government web resources and services.